Time;durP1;ratioP1;P1;durP2;ratioP2;P2;SDS_P1;SDS_P2;PMS_P1;PMS_P2;Temp;Humidity;BMP_temperature;BMP_pressure;BME280_temperature;BME280_humidity;BME280_pressure;Samples;Min_cycle;Max_cycle;Signal;HPM_P1;HPM_P2
2023/07/11 00:02:22;;;;;;;5.82;2.17;;;18.30;99.90;;;;;;5092261;28;20079;-68
2023/07/11 00:04:48;;;;;;;7.47;2.20;;;18.20;99.90;;;;;;5091379;28;20129;-68
2023/07/11 00:07:14;;;;;;;8.88;2.33;;;18.20;99.90;;;;;;5125993;27;20043;-68
2023/07/11 00:09:39;;;;;;;5.75;2.08;;;18.20;99.90;;;;;;5091960;28;20479;-68
2023/07/11 00:12:06;;;;;;;5.10;1.80;;;18.20;99.90;;;;;;5125761;27;20046;-68
2023/07/11 00:14:32;;;;;;;6.45;2.15;;;18.20;99.90;;;;;;5093223;28;20044;-68
2023/07/11 00:16:58;;;;;;;4.93;1.70;;;18.10;99.90;;;;;;5125871;27;20495;-68
2023/07/11 00:19:23;;;;;;;5.97;2.10;;;18.10;99.90;;;;;;5092194;28;20042;-68
2023/07/11 00:21:49;;;;;;;5.32;1.77;;;18.10;99.90;;;;;;5092852;28;20071;-68
2023/07/11 00:24:15;;;;;;;4.00;1.60;;;18.10;99.90;;;;;;5125812;27;20036;-68
2023/07/11 00:26:41;;;;;;;5.03;2.17;;;18.00;99.90;;;;;;5092345;28;20032;-68
2023/07/11 00:29:19;;;;;;;5.97;1.75;;;17.90;99.90;;;;;;5091690;28;20044;-68
2023/07/11 00:31:44;;;;;;;5.63;2.05;;;17.90;99.90;;;;;;5092032;28;20043;-68
2023/07/11 00:34:10;;;;;;;5.15;2.10;;;17.80;99.90;;;;;;5091880;28;20366;-68
2023/07/11 00:36:36;;;;;;;4.82;2.05;;;17.80;99.90;;;;;;5091837;28;20477;-67
2023/07/11 00:39:05;;;;;;;5.93;1.77;;;17.80;99.90;;;;;;5092144;28;20484;-68
2023/07/11 00:41:31;;;;;;;5.45;2.05;;;17.80;99.90;;;;;;5074228;28;20039;-68
2023/07/11 00:44:02;;;;;;;8.82;2.50;;;17.80;99.90;;;;;;5091462;28;20135;-68
2023/07/11 00:46:28;;;;;;;4.70;1.80;;;17.70;99.90;;;;;;5090826;28;20044;-68
2023/07/11 00:48:57;;;;;;;5.25;1.73;;;17.70;99.90;;;;;;5090919;28;20051;-68
2023/07/11 00:51:35;;;;;;;6.57;2.08;;;17.70;99.90;;;;;;5092331;28;20032;-68
2023/07/11 00:54:04;;;;;;;6.68;1.98;;;17.70;99.90;;;;;;5090912;28;20040;-68
2023/07/11 00:56:35;;;;;;;6.45;1.83;;;17.70;99.90;;;;;;5091362;28;20189;-68
2023/07/11 00:59:01;;;;;;;7.13;1.88;;;17.70;99.90;;;;;;5090995;28;20118;-68
2023/07/11 01:01:27;;;;;;;4.63;1.48;;;17.70;99.90;;;;;;5091863;28;20036;-68
2023/07/11 01:03:54;;;;;;;4.50;1.90;;;17.70;99.90;;;;;;5090482;28;20101;-68
2023/07/11 01:06:27;;;;;;;5.40;1.83;;;17.70;99.90;;;;;;5092337;28;20057;-68
2023/07/11 01:08:55;;;;;;;5.75;2.00;;;17.70;99.90;;;;;;5090251;28;20119;-68
2023/07/11 01:11:24;;;;;;;7.25;2.10;;;17.70;99.90;;;;;;5092405;28;20078;-68
2023/07/11 01:13:50;;;;;;;6.25;1.95;;;17.70;99.90;;;;;;5091591;28;20067;-68
2023/07/11 01:16:15;;;;;;;4.10;1.70;;;17.70;99.90;;;;;;5090264;28;20510;-68
2023/07/11 01:18:41;;;;;;;7.20;1.90;;;17.70;99.90;;;;;;5090920;28;20044;-68
2023/07/11 01:21:08;;;;;;;5.35;1.90;;;17.70;99.90;;;;;;5091077;28;20415;-68
2023/07/11 01:23:35;;;;;;;8.65;2.20;;;17.70;99.90;;;;;;5091044;28;20055;-68
2023/07/11 01:26:06;;;;;;;6.13;2.45;;;17.60;99.90;;;;;;5124888;27;20051;-68
2023/07/11 01:28:32;;;;;;;9.10;2.20;;;17.60;99.90;;;;;;5073295;28;20121;-68
2023/07/11 01:30:58;;;;;;;8.15;2.00;;;17.60;99.90;;;;;;5091917;28;20048;-68
2023/07/11 01:33:26;;;;;;;5.93;2.50;;;17.60;99.90;;;;;;5092114;28;20024;-68
2023/07/11 01:35:53;;;;;;;5.15;2.22;;;17.60;99.90;;;;;;5091585;28;20386;-68
2023/07/11 01:38:20;;;;;;;8.20;2.60;;;17.60;99.90;;;;;;5090415;28;20557;-68
2023/07/11 01:40:47;;;;;;;6.22;2.03;;;17.60;99.90;;;;;;5091451;28;20090;-68
2023/07/11 01:43:15;;;;;;;4.55;2.22;;;17.50;99.90;;;;;;5091268;28;20089;-68
2023/07/11 01:45:40;;;;;;;4.63;2.25;;;17.50;99.90;;;;;;5094566;28;20108;-68
2023/07/11 01:48:06;;;;;;;6.03;2.17;;;17.40;99.90;;;;;;5094747;28;20455;-68
2023/07/11 01:50:32;;;;;;;6.35;2.20;;;17.40;99.90;;;;;;5077279;28;20043;-68
2023/07/11 01:52:58;;;;;;;7.65;2.33;;;17.40;99.90;;;;;;5128855;27;20093;-68
2023/07/11 01:55:23;;;;;;;6.25;2.28;;;17.30;99.90;;;;;;5095978;28;20473;-68
2023/07/11 01:57:49;;;;;;;5.45;2.38;;;17.30;99.90;;;;;;5126464;27;20121;-68
2023/07/11 02:00:15;;;;;;;5.80;2.28;;;17.30;99.90;;;;;;5128363;27;20048;-68
2023/07/11 02:02:41;;;;;;;3.88;1.48;;;17.30;99.90;;;;;;5094322;28;20043;-68
2023/07/11 02:05:07;;;;;;;6.47;2.20;;;17.20;99.90;;;;;;5093756;28;20043;-68
2023/07/11 02:07:33;;;;;;;6.13;2.55;;;17.20;99.90;;;;;;5094375;28;20085;-68
2023/07/11 02:09:58;;;;;;;4.28;1.95;;;17.20;99.90;;;;;;5093800;28;20040;-68
2023/07/11 02:12:24;;;;;;;7.38;2.65;;;17.10;99.90;;;;;;5094169;28;20043;-68
2023/07/11 02:14:50;;;;;;;7.65;2.65;;;17.10;99.90;;;;;;5094228;28;20075;-68
2023/07/11 02:17:16;;;;;;;6.38;2.60;;;17.10;99.90;;;;;;5095047;28;20146;-68
2023/07/11 02:19:46;;;;;;;3.83;1.95;;;17.10;99.90;;;;;;5095404;28;20405;-68
2023/07/11 02:22:12;;;;;;;5.65;2.33;;;17.00;99.90;;;;;;5094652;28;20052;-67
2023/07/11 02:24:39;;;;;;;8.55;2.88;;;17.00;99.90;;;;;;5095036;28;20071;-68
2023/07/11 02:27:06;;;;;;;7.18;2.15;;;17.00;99.90;;;;;;5095024;28;20523;-68
2023/07/11 02:29:32;;;;;;;5.30;2.33;;;17.00;99.90;;;;;;5077096;28;20071;-68
2023/07/11 02:31:58;;;;;;;7.47;2.30;;;17.00;99.90;;;;;;5093321;28;20032;-68
2023/07/11 02:34:24;;;;;;;7.75;2.63;;;17.00;99.90;;;;;;5093850;28;20397;-68
2023/07/11 02:36:49;;;;;;;6.30;2.65;;;17.00;99.90;;;;;;5093884;28;20040;-68
2023/07/11 02:39:15;;;;;;;7.05;2.75;;;17.00;99.90;;;;;;5094630;28;20047;-68
2023/07/11 02:41:41;;;;;;;6.10;2.30;;;17.00;99.90;;;;;;5093573;28;20032;-68
2023/07/11 02:44:07;;;;;;;6.32;2.65;;;16.90;99.90;;;;;;5094792;28;20083;-68
2023/07/11 02:46:33;;;;;;;6.07;2.30;;;17.00;99.90;;;;;;5092958;28;20074;-68
2023/07/11 02:48:59;;;;;;;4.95;2.47;;;17.00;99.90;;;;;;5093390;28;20163;-68
2023/07/11 02:51:25;;;;;;;6.28;2.20;;;17.00;99.90;;;;;;5093530;28;20123;-68
2023/07/11 02:53:51;;;;;;;12.35;2.53;;;17.00;99.90;;;;;;5075872;28;20046;-68
2023/07/11 02:56:19;;;;;;;8.77;2.65;;;17.00;99.90;;;;;;5092913;28;20485;-68
2023/07/11 02:58:45;;;;;;;7.13;2.40;;;17.00;99.90;;;;;;5094899;28;20079;-68
2023/07/11 03:01:11;;;;;;;5.03;2.10;;;17.00;99.90;;;;;;5075998;28;20040;-68
2023/07/11 03:03:37;;;;;;;3.97;1.58;;;16.90;99.90;;;;;;5093448;28;20040;-68
2023/07/11 03:06:03;;;;;;;6.75;2.40;;;16.90;99.90;;;;;;5093487;28;20043;-68
2023/07/11 03:08:29;;;;;;;6.05;2.35;;;16.90;99.90;;;;;;5092214;28;20089;-68
2023/07/11 03:10:59;;;;;;;5.80;2.75;;;16.90;99.90;;;;;;5093383;28;20119;-68
2023/07/11 03:13:25;;;;;;;6.63;2.40;;;16.90;99.90;;;;;;5092850;28;20036;-68
2023/07/11 03:15:51;;;;;;;6.53;2.72;;;16.80;99.90;;;;;;5092750;28;20043;-68
2023/07/11 03:18:17;;;;;;;6.75;2.30;;;16.80;99.90;;;;;;5094408;28;20046;-68
2023/07/11 03:20:43;;;;;;;7.00;2.63;;;16.80;99.90;;;;;;5093728;28;20043;-68
2023/07/11 03:23:11;;;;;;;4.75;2.20;;;16.80;99.90;;;;;;5093182;28;20123;-68
2023/07/11 03:25:37;;;;;;;8.65;2.50;;;16.80;99.90;;;;;;5076000;28;20043;-68
2023/07/11 03:28:02;;;;;;;6.25;2.65;;;16.90;99.90;;;;;;5092047;28;20047;-68
2023/07/11 03:30:30;;;;;;;6.03;2.50;;;16.90;99.90;;;;;;5075999;28;20396;-68
2023/07/11 03:32:56;;;;;;;7.57;2.55;;;16.90;99.90;;;;;;5092464;28;20043;-68
2023/07/11 03:35:22;;;;;;;7.05;2.92;;;16.80;99.90;;;;;;5126342;27;20431;-68
2023/07/11 03:37:47;;;;;;;8.38;2.70;;;16.80;99.90;;;;;;5126817;27;20051;-68
2023/07/11 03:40:14;;;;;;;8.50;3.00;;;16.90;99.90;;;;;;5093900;28;20032;-68
2023/07/11 03:42:40;;;;;;;5.82;2.28;;;16.90;99.90;;;;;;5092207;28;20036;-68
2023/07/11 03:45:06;;;;;;;5.28;2.45;;;16.80;99.90;;;;;;5093689;28;20543;-68
2023/07/11 03:47:32;;;;;;;7.97;3.70;;;16.90;99.90;;;;;;5092583;28;20066;-68
2023/07/11 03:49:57;;;;;;;8.68;2.95;;;16.90;99.90;;;;;;5125982;27;20040;-68
2023/07/11 03:52:23;;;;;;;6.43;2.78;;;16.90;99.90;;;;;;5093193;28;20047;-68
2023/07/11 03:54:49;;;;;;;7.10;2.72;;;16.90;99.90;;;;;;5092194;28;20071;-68
2023/07/11 03:57:16;;;;;;;6.88;2.60;;;16.90;99.90;;;;;;5092885;28;20055;-68
2023/07/11 03:59:42;;;;;;;7.03;2.35;;;16.90;99.90;;;;;;5092220;28;20048;-68
2023/07/11 04:02:07;;;;;;;7.10;2.60;;;17.00;99.90;;;;;;5075710;28;20062;-68
2023/07/11 04:04:33;;;;;;;7.10;2.95;;;17.00;99.90;;;;;;5092674;28;20043;-68
2023/07/11 04:06:59;;;;;;;5.82;2.70;;;17.00;99.90;;;;;;5091461;28;20528;-68
2023/07/11 04:09:24;;;;;;;11.68;3.72;;;17.00;99.90;;;;;;5092211;28;20067;-68
2023/07/11 04:11:50;;;;;;;8.65;3.25;;;17.00;99.90;;;;;;5091142;28;20481;-68
2023/07/11 04:14:17;;;;;;;7.65;2.70;;;17.10;99.90;;;;;;5092144;28;20036;-68
2023/07/11 04:16:43;;;;;;;8.35;3.00;;;17.10;99.90;;;;;;5092543;28;20044;-68
2023/07/11 04:19:08;;;;;;;7.97;3.08;;;17.20;99.90;;;;;;5093244;28;20085;-68
2023/07/11 04:21:35;;;;;;;9.30;2.58;;;17.20;99.90;;;;;;5074808;28;20047;-68
2023/07/11 04:24:01;;;;;;;7.15;2.78;;;17.20;99.90;;;;;;5092640;28;20043;-68
2023/07/11 04:26:27;;;;;;;9.65;3.53;;;17.20;99.90;;;;;;5092751;28;20044;-68
2023/07/11 04:28:53;;;;;;;10.05;3.33;;;17.30;99.90;;;;;;5091324;28;20044;-68
2023/07/11 04:31:18;;;;;;;7.20;3.33;;;17.30;99.90;;;;;;5092309;28;20068;-68
2023/07/11 04:33:44;;;;;;;8.55;3.83;;;17.30;99.90;;;;;;5092585;28;20043;-68
2023/07/11 04:36:13;;;;;;;6.78;3.53;;;17.40;99.90;;;;;;5091916;28;20038;-68
2023/07/11 04:38:39;;;;;;;8.23;3.78;;;17.40;99.90;;;;;;5074294;28;20043;-68
2023/07/11 04:41:06;;;;;;;8.82;3.55;;;17.40;99.90;;;;;;5091833;28;20093;-68
2023/07/11 04:43:36;;;;;;;11.15;3.90;;;17.40;99.90;;;;;;5091357;28;20047;-68
2023/07/11 04:46:03;;;;;;;8.52;4.25;;;17.40;99.90;;;;;;5090869;28;20708;-68
2023/07/11 04:48:30;;;;;;;7.53;3.70;;;17.50;99.90;;;;;;5091095;28;20046;-68
2023/07/11 04:51:02;;;;;;;9.77;3.80;;;17.50;99.90;;;;;;5092606;28;20036;-68
2023/07/11 04:53:29;;;;;;;11.95;4.28;;;17.50;99.90;;;;;;5090445;28;20037;-68
2023/07/11 04:56:07;;;;;;;10.27;4.10;;;17.60;99.90;;;;;;5091115;28;20081;-68
2023/07/11 04:58:34;;;;;;;9.68;4.20;;;17.60;99.90;;;;;;5091376;28;20123;-68
2023/07/11 05:01:11;;;;;;;10.98;4.13;;;17.70;99.90;;;;;;5090386;28;20047;-68
2023/07/11 05:03:37;;;;;;;10.38;4.53;;;17.70;99.90;;;;;;5091378;28;20488;-68
2023/07/11 05:06:05;;;;;;;12.55;5.80;;;17.80;99.90;;;;;;5090918;28;20622;-68
2023/07/11 05:08:31;;;;;;;8.65;4.55;;;17.90;99.90;;;;;;5090830;28;20055;-68
2023/07/11 05:11:01;;;;;;;7.10;4.32;;;18.00;99.90;;;;;;5090645;28;20040;-68
2023/07/11 05:13:28;;;;;;;9.98;5.10;;;18.00;99.90;;;;;;5090482;28;20128;-68
2023/07/11 05:16:06;;;;;;;9.55;5.28;;;18.10;99.90;;;;;;5073692;28;20044;-68
2023/07/11 05:18:33;;;;;;;11.88;5.38;;;18.20;99.90;;;;;;5091476;28;20434;-68
2023/07/11 05:20:59;;;;;;;10.70;5.20;;;18.20;99.90;;;;;;5090377;28;20048;-68
2023/07/11 05:23:28;;;;;;;7.72;4.35;;;18.20;99.90;;;;;;5090634;28;20189;-68
2023/07/11 05:25:54;;;;;;;8.88;4.85;;;18.30;99.90;;;;;;5090738;28;20080;-68
2023/07/11 05:28:27;;;;;;;12.82;6.38;;;18.40;99.90;;;;;;5091357;28;20522;-68
2023/07/11 05:30:54;;;;;;;8.50;4.82;;;18.50;99.90;;;;;;5090849;28;20047;-67
2023/07/11 05:33:20;;;;;;;9.45;5.00;;;18.60;99.90;;;;;;5090858;28;20530;-68
2023/07/11 05:36:05;;;;;;;8.77;4.57;;;18.60;99.90;;;;;;5073578;28;20385;-68
2023/07/11 05:38:32;;;;;;;10.07;5.25;;;18.60;99.90;;;;;;5090977;28;20071;-68
2023/07/11 05:40:59;;;;;;;9.35;4.93;;;18.70;99.90;;;;;;5090033;28;20040;-68
2023/07/11 05:43:25;;;;;;;9.60;5.82;;;18.70;99.90;;;;;;5090527;28;20048;-68
2023/07/11 05:45:51;;;;;;;8.85;4.97;;;18.80;99.90;;;;;;5090588;28;20147;-68
2023/07/11 05:48:16;;;;;;;12.63;6.03;;;18.90;99.90;;;;;;5073006;28;20044;-68
2023/07/11 05:50:42;;;;;;;11.18;5.32;;;18.90;99.90;;;;;;5090314;28;20523;-68
2023/07/11 05:53:07;;;;;;;8.65;4.85;;;19.00;99.90;;;;;;5125151;28;20032;-68
2023/07/11 05:55:33;;;;;;;9.40;5.60;;;19.00;99.90;;;;;;5091102;28;20032;-68
2023/07/11 05:57:59;;;;;;;9.30;5.32;;;19.10;99.90;;;;;;5091681;28;20493;-68
2023/07/11 06:00:25;;;;;;;11.55;5.47;;;19.20;99.90;;;;;;5090773;28;20044;-68
2023/07/11 06:02:50;;;;;;;10.45;5.82;;;19.40;99.90;;;;;;5106889;28;20481;-68
2023/07/11 06:05:16;;;;;;;10.75;5.05;;;19.50;99.90;;;;;;5090056;28;20032;-68
2023/07/11 06:07:43;;;;;;;11.07;5.97;;;19.50;99.90;;;;;;5091746;28;20085;-67
2023/07/11 06:10:09;;;;;;;8.23;4.95;;;19.60;99.90;;;;;;5073376;28;20123;-68
2023/07/11 06:12:35;;;;;;;9.05;4.90;;;19.70;99.90;;;;;;5091711;28;20397;-68
2023/07/11 06:15:01;;;;;;;9.25;5.85;;;19.90;99.90;;;;;;5107351;28;20032;-68
2023/07/11 06:17:27;;;;;;;8.88;5.72;;;20.10;99.90;;;;;;5089029;28;20036;-68
2023/07/11 06:19:53;;;;;;;10.90;5.80;;;20.20;99.90;;;;;;5089608;28;20072;-68
2023/07/11 06:22:19;;;;;;;11.75;5.93;;;20.40;99.90;;;;;;5090067;28;20040;-68
2023/07/11 06:24:46;;;;;;;9.73;5.75;;;20.50;99.90;;;;;;5071675;28;20048;-68
2023/07/11 06:27:13;;;;;;;9.63;5.93;;;20.50;99.90;;;;;;5102746;28;20043;-68
2023/07/11 06:29:38;;;;;;;13.05;6.43;;;20.50;99.90;;;;;;5093758;28;20093;-68
2023/07/11 06:32:05;;;;;;;9.82;6.13;;;20.40;99.90;;;;;;5092324;28;20427;-69
2023/07/11 06:34:32;;;;;;;10.88;5.72;;;20.30;99.90;;;;;;5076023;28;20054;-69
2023/07/11 06:36:58;;;;;;;9.15;5.35;;;20.30;99.90;;;;;;5101307;28;20040;-68
2023/07/11 06:39:25;;;;;;;10.15;5.75;;;20.30;99.90;;;;;;5073428;28;20125;-68
2023/07/11 06:41:50;;;;;;;12.32;6.10;;;20.30;99.90;;;;;;5092565;28;20039;-68
2023/07/11 06:44:16;;;;;;;11.73;5.85;;;20.20;99.90;;;;;;5092070;28;20056;-67
2023/07/11 06:46:42;;;;;;;9.50;5.90;;;20.20;99.90;;;;;;5125143;27;20113;-68
2023/07/11 06:49:07;;;;;;;14.35;6.75;;;20.20;99.90;;;;;;5091704;28;20082;-67
2023/07/11 06:51:33;;;;;;;11.85;5.40;;;20.30;99.90;;;;;;5089631;28;20043;-67
2023/07/11 06:53:59;;;;;;;10.63;5.72;;;20.30;99.90;;;;;;5073477;28;20483;-68
2023/07/11 06:56:26;;;;;;;14.80;6.38;;;20.30;99.90;;;;;;5112512;27;20507;-68
2023/07/11 06:58:51;;;;;;;12.98;6.00;;;20.40;99.90;;;;;;5070236;28;20493;-68
2023/07/11 07:01:21;;;;;;;13.45;6.05;;;20.40;99.90;;;;;;5083401;28;20039;-68
2023/07/11 07:03:47;;;;;;;8.73;5.22;;;20.50;99.90;;;;;;5089187;28;20035;-67
2023/07/11 07:06:14;;;;;;;9.48;5.85;;;20.50;99.90;;;;;;5090128;28;20093;-68
2023/07/11 07:08:40;;;;;;;9.23;5.78;;;20.60;99.90;;;;;;5089704;28;20115;-68
2023/07/11 07:11:06;;;;;;;9.10;5.82;;;20.70;99.90;;;;;;5091405;28;20036;-68
2023/07/11 07:13:32;;;;;;;9.05;5.55;;;20.80;99.90;;;;;;5089894;28;20172;-68
2023/07/11 07:15:59;;;;;;;9.40;5.85;;;20.90;99.90;;;;;;5111797;27;20097;-68
2023/07/11 07:18:27;;;;;;;9.93;5.07;;;21.00;99.90;;;;;;5090757;28;20040;-68
2023/07/11 07:20:53;;;;;;;13.80;6.65;;;21.10;99.90;;;;;;5088655;28;20408;-68
2023/07/11 07:23:20;;;;;;;7.88;5.13;;;21.20;99.90;;;;;;5089631;28;20040;-68
2023/07/11 07:25:54;;;;;;;9.77;5.00;;;21.20;99.90;;;;;;5090013;28;20035;-68
2023/07/11 07:28:20;;;;;;;11.13;5.10;;;21.30;99.90;;;;;;5088868;28;20051;-68
2023/07/11 07:30:47;;;;;;;9.48;5.65;;;21.40;99.90;;;;;;5090856;28;20076;-68
2023/07/11 07:33:13;;;;;;;9.20;4.60;;;21.50;99.90;;;;;;5089975;28;20036;-68
2023/07/11 07:35:40;;;;;;;8.57;5.18;;;21.50;99.90;;;;;;5089852;28;20052;-68
2023/07/11 07:38:06;;;;;;;9.32;4.95;;;21.60;99.90;;;;;;5090048;28;20090;-68
2023/07/11 07:40:32;;;;;;;12.23;6.53;;;21.60;99.90;;;;;;5089239;28;20090;-68
2023/07/11 07:42:58;;;;;;;8.75;4.18;;;21.70;99.90;;;;;;5088449;28;20093;-67
2023/07/11 07:45:23;;;;;;;7.78;4.75;;;21.70;99.90;;;;;;5090352;28;20401;-68
2023/07/11 07:47:49;;;;;;;7.97;4.50;;;21.80;99.90;;;;;;5070680;28;20051;-68
2023/07/11 07:50:15;;;;;;;9.45;4.43;;;21.80;99.90;;;;;;5094853;28;20038;-68
2023/07/11 07:52:41;;;;;;;6.97;4.28;;;22.00;99.90;;;;;;5100959;28;20043;-68
2023/07/11 07:55:07;;;;;;;9.63;4.97;;;22.00;99.90;;;;;;5093177;28;20105;-68
2023/07/11 07:57:33;;;;;;;9.63;4.53;;;22.10;99.90;;;;;;5105856;27;20105;-68
2023/07/11 07:59:59;;;;;;;8.85;4.78;;;22.20;99.90;;;;;;5068996;28;20054;-68
2023/07/11 08:02:25;;;;;;;8.65;5.00;;;22.30;99.90;;;;;;5094296;28;20055;-68
2023/07/11 08:04:51;;;;;;;6.93;4.28;;;22.40;99.90;;;;;;5097546;28;20055;-68
2023/07/11 08:07:17;;;;;;;12.15;4.05;;;22.40;99.90;;;;;;5090067;28;20434;-68
2023/07/11 08:09:43;;;;;;;13.77;4.97;;;22.50;99.90;;;;;;5088596;28;20050;-68
2023/07/11 08:12:10;;;;;;;8.15;4.28;;;22.50;99.90;;;;;;5099908;28;20040;-67
2023/07/11 08:14:37;;;;;;;9.30;4.85;;;22.50;99.90;;;;;;5087199;28;20032;-66
2023/07/11 08:17:04;;;;;;;9.45;4.95;;;22.50;99.90;;;;;;5106045;28;20557;-70
2023/07/11 08:19:29;;;;;;;9.48;4.55;;;22.70;99.90;;;;;;5107533;28;20567;-67
2023/07/11 08:21:55;;;;;;;9.35;4.78;;;22.90;99.90;;;;;;5098521;28;20128;-68
2023/07/11 08:24:21;;;;;;;9.00;4.07;;;23.10;99.90;;;;;;5106382;28;20035;-66
2023/07/11 08:26:46;;;;;;;9.60;4.68;;;23.40;99.90;;;;;;5091132;28;20427;-65
2023/07/11 08:29:13;;;;;;;7.32;4.30;;;23.60;99.90;;;;;;5083540;28;20040;-65
2023/07/11 08:31:39;;;;;;;7.25;3.80;;;23.60;99.90;;;;;;5089667;28;20047;-65
2023/07/11 08:34:05;;;;;;;6.65;3.60;;;23.80;99.90;;;;;;5088079;28;20087;-65
2023/07/11 08:36:30;;;;;;;10.27;4.15;;;23.80;99.90;;;;;;5088508;28;20063;-65
2023/07/11 08:38:56;;;;;;;9.60;4.05;;;23.90;99.90;;;;;;5088219;28;20143;-65
2023/07/11 08:42:01;;;;;;;8.35;3.70;;;23.90;99.90;;;;;;5090247;28;20152;-65
2023/07/11 08:44:36;;;;;;;7.53;4.05;;;24.00;99.90;;;;;;4995604;28;20545;-65
2023/07/11 08:47:24;;;;;;;8.77;4.35;;;24.00;99.90;;;;;;5075654;28;20516;-65
2023/07/11 08:50:08;;;;;;;9.90;4.35;;;24.00;99.90;;;;;;5088934;28;20048;-65
2023/07/11 08:52:34;;;;;;;8.13;3.97;;;24.10;99.90;;;;;;5087291;28;20043;-65
2023/07/11 08:55:14;;;;;;;9.57;3.92;;;24.10;99.90;;;;;;5107032;28;20043;-65
2023/07/11 08:57:55;;;;;;;9.30;3.75;;;24.20;99.90;;;;;;5106399;28;20043;-65
2023/07/11 09:00:23;;;;;;;8.13;4.03;;;24.30;99.90;;;;;;5090076;28;20032;-65
2023/07/11 09:02:59;;;;;;;8.32;3.80;;;24.30;99.90;;;;;;5101686;28;20039;-65
2023/07/11 09:05:59;;;;;;;7.40;3.42;;;24.50;99.90;;;;;;5090498;28;20115;-66
2023/07/11 09:08:25;;;;;;;7.53;3.20;;;24.60;99.90;;;;;;5091811;28;20051;-65
2023/07/11 09:10:53;;;;;;;7.78;3.00;;;24.60;99.90;;;;;;5091442;28;20040;-66
2023/07/11 09:13:19;;;;;;;7.80;4.05;;;24.70;99.90;;;;;;5092128;28;20036;-65
2023/07/11 09:16:00;;;;;;;9.95;3.75;;;24.80;99.90;;;;;;5090120;28;20035;-65
2023/07/11 09:18:49;;;;;;;7.53;3.38;;;24.90;99.90;;;;;;5090604;28;20051;-65
2023/07/11 09:21:49;;;;;;;7.78;3.13;;;25.00;99.90;;;;;;5090679;28;20433;-65
2023/07/11 09:24:47;;;;;;;7.35;3.10;;;25.10;99.90;;;;;;5077880;28;20052;-65
2023/07/11 09:27:37;;;;;;;8.52;2.88;;;25.10;99.90;;;;;;5113769;27;20075;-66
2023/07/11 09:30:30;;;;;;;8.00;3.92;;;25.10;99.90;;;;;;5090945;28;20051;-64
2023/07/11 09:33:10;;;;;;;6.47;3.17;;;25.30;99.90;;;;;;5091259;28;20040;-65
2023/07/11 09:35:37;;;;;;;8.30;3.42;;;25.40;99.90;;;;;;5092114;28;20066;-65
2023/07/11 09:38:13;;;;;;;6.32;2.92;;;25.40;99.00;;;;;;5105510;28;20046;-65
2023/07/11 09:40:51;;;;;;;5.30;2.65;;;25.50;99.00;;;;;;5104039;28;20089;-65
2023/07/11 09:43:17;;;;;;;9.93;3.50;;;25.50;99.00;;;;;;5092101;28;20036;-65
2023/07/11 09:45:45;;;;;;;8.55;3.17;;;25.50;98.50;;;;;;5091861;28;20101;-65
2023/07/11 09:48:21;;;;;;;7.57;3.40;;;25.50;98.10;;;;;;5090549;28;20093;-65
2023/07/11 09:51:15;;;;;;;8.65;3.55;;;25.60;97.40;;;;;;5092013;28;20035;-65
2023/07/11 09:53:43;;;;;;;7.18;3.22;;;25.60;96.40;;;;;;5109679;28;20044;-65
2023/07/11 09:56:12;;;;;;;5.90;2.60;;;25.60;97.80;;;;;;5110390;28;20089;-65
2023/07/11 09:58:39;;;;;;;6.90;2.97;;;25.70;97.80;;;;;;5105239;28;20488;-66
2023/07/11 10:01:21;;;;;;;6.70;2.92;;;25.80;98.40;;;;;;5111313;28;20036;-66
2023/07/11 10:03:47;;;;;;;6.80;2.70;;;26.00;98.70;;;;;;5100637;28;20117;-66
2023/07/11 10:06:33;;;;;;;7.43;2.42;;;26.10;98.10;;;;;;5094651;28;20044;-64
2023/07/11 10:09:24;;;;;;;8.30;2.42;;;26.20;98.20;;;;;;5097738;28;20043;-66
2023/07/11 10:11:53;;;;;;;6.18;2.90;;;26.10;97.30;;;;;;5095375;28;20048;-65
2023/07/11 10:14:20;;;;;;;7.72;2.78;;;25.80;96.70;;;;;;5126583;27;20427;-66
2023/07/11 10:16:47;;;;;;;9.65;3.65;;;25.70;97.10;;;;;;5093424;28;20036;-66
2023/07/11 10:19:18;;;;;;;6.78;3.22;;;25.70;97.20;;;;;;5104376;28;20051;-67
2023/07/11 10:21:48;;;;;;;7.85;3.05;;;25.70;97.20;;;;;;5096909;27;20032;-66
2023/07/11 10:24:21;;;;;;;7.15;3.03;;;25.60;97.20;;;;;;5094759;28;20044;-66
2023/07/11 10:26:51;;;;;;;10.52;3.88;;;25.50;97.30;;;;;;5095498;28;20116;-65
2023/07/11 10:29:21;;;;;;;7.40;3.35;;;25.30;97.20;;;;;;5093765;28;20400;-66
2023/07/11 10:31:55;;;;;;;10.13;4.00;;;25.20;97.60;;;;;;5094064;28;20032;-66
2023/07/11 10:34:39;;;;;;;7.53;3.95;;;25.20;98.40;;;;;;5096016;28;20089;-65
2023/07/11 10:37:12;;;;;;;11.20;4.20;;;25.10;98.60;;;;;;5083665;28;20404;-65
2023/07/11 10:39:51;;;;;;;7.43;3.63;;;25.00;98.60;;;;;;5128619;27;20125;-65
2023/07/11 10:42:44;;;;;;;7.93;3.72;;;25.10;98.10;;;;;;5096791;28;20074;-64
2023/07/11 10:45:19;;;;;;;8.55;3.72;;;25.20;99.10;;;;;;5093118;28;20052;-66
2023/07/11 10:48:02;;;;;;;11.05;3.92;;;25.30;99.30;;;;;;5076895;28;20393;-67
2023/07/11 10:50:49;;;;;;;7.68;3.25;;;25.50;99.40;;;;;;5091965;28;20040;-65
2023/07/11 10:53:31;;;;;;;8.90;4.57;;;25.60;98.90;;;;;;5107178;28;20041;-65
2023/07/11 10:56:13;;;;;;;7.65;3.78;;;25.60;98.20;;;;;;5073212;28;20032;-65
2023/07/11 10:58:39;;;;;;;13.30;4.90;;;25.60;98.60;;;;;;5073909;28;20045;-65
2023/07/11 11:01:17;;;;;;;11.23;3.97;;;25.60;98.60;;;;;;5073678;28;20127;-65
2023/07/11 11:03:46;;;;;;;7.97;3.70;;;25.70;98.10;;;;;;5107042;28;20080;-65
2023/07/11 11:06:30;;;;;;;9.20;4.38;;;25.80;98.20;;;;;;5106471;28;20040;-65
2023/07/11 11:09:14;;;;;;;8.18;4.22;;;25.90;97.90;;;;;;5107026;28;20043;-65
2023/07/11 11:11:55;;;;;;;14.32;4.05;;;26.10;97.10;;;;;;5106501;28;20075;-65
2023/07/11 11:14:33;;;;;;;10.25;4.50;;;26.10;96.90;;;;;;5072853;28;20040;-65
2023/07/11 11:17:20;;;;;;;9.02;4.55;;;26.00;96.40;;;;;;5073084;28;20474;-65
2023/07/11 11:20:10;;;;;;;7.90;4.70;;;25.90;96.80;;;;;;5073367;28;20618;-65
2023/07/11 11:22:51;;;;;;;12.07;5.57;;;26.00;96.70;;;;;;5089598;28;20037;-65
2023/07/11 11:25:25;;;;;;;7.15;3.97;;;26.00;96.80;;;;;;5106440;28;20519;-65
2023/07/11 11:27:54;;;;;;;10.20;5.05;;;25.90;96.70;;;;;;5071817;28;20087;-65
2023/07/11 11:30:28;;;;;;;9.75;4.50;;;25.80;96.80;;;;;;5072710;28;20072;-65
2023/07/11 11:32:59;;;;;;;;;;;25.80;97.20;;;;;;5072499;28;20550;-65
2023/07/11 11:36:18;;;;;;;12.85;4.60;;;25.80;97.20;;;;;;5072446;28;19926;-66
2023/07/11 11:39:08;;;;;;;13.27;4.35;;;25.70;97.00;;;;;;5023837;28;20124;-65
2023/07/11 11:41:40;;;;;;;10.98;5.13;;;25.70;97.00;;;;;;5071876;28;20049;-65
2023/07/11 11:44:31;;;;;;;10.27;5.15;;;25.70;97.20;;;;;;5106520;28;20174;-65
2023/07/11 11:46:58;;;;;;;11.23;4.65;;;25.80;97.70;;;;;;5055492;28;20056;-65
2023/07/11 11:49:25;;;;;;;6.90;3.90;;;25.80;97.30;;;;;;5106157;28;20046;-65
2023/07/11 11:51:53;;;;;;;9.05;3.45;;;25.90;97.00;;;;;;5072335;28;20177;-65
2023/07/11 11:54:23;;;;;;;8.10;4.15;;;26.00;96.70;;;;;;5073183;28;20359;-65
2023/07/11 11:57:00;;;;;;;7.88;3.40;;;26.10;96.90;;;;;;5073489;28;20486;-65
2023/07/11 11:59:27;;;;;;;8.23;3.60;;;26.20;96.80;;;;;;5072409;28;20051;-65
2023/07/11 12:01:53;;;;;;;7.40;3.50;;;26.30;96.80;;;;;;5088064;28;20494;-66
2023/07/11 12:04:59;;;;;;;9.65;3.38;;;26.30;95.80;;;;;;5072326;28;20051;-65
2023/07/11 12:07:33;;;;;;;7.93;2.67;;;26.10;94.50;;;;;;5105909;28;20032;-65
2023/07/11 12:10:08;;;;;;;6.60;2.78;;;26.20;94.50;;;;;;5105141;28;20040;-65
2023/07/11 12:12:34;;;;;;;5.82;3.03;;;26.20;93.70;;;;;;5072182;28;20123;-65
2023/07/11 12:15:17;;;;;;;7.35;3.35;;;26.20;93.70;;;;;;5072742;28;20119;-65
2023/07/11 12:17:44;;;;;;;6.50;2.60;;;26.30;93.70;;;;;;5055139;28;20067;-65
2023/07/11 12:20:18;;;;;;;7.80;2.72;;;26.30;94.10;;;;;;5071902;28;20044;-66
2023/07/11 12:22:44;;;;;;;11.33;3.33;;;26.40;93.30;;;;;;5072143;28;20044;-65
2023/07/11 12:25:12;;;;;;;7.40;3.20;;;26.40;93.70;;;;;;5105993;28;20373;-65
2023/07/11 12:27:38;;;;;;;6.60;2.50;;;26.40;93.90;;;;;;5071413;28;20044;-65
2023/07/11 12:30:28;;;;;;;10.40;3.38;;;26.20;93.40;;;;;;5072076;28;20032;-65
2023/07/11 12:32:54;;;;;;;6.40;2.90;;;26.10;93.50;;;;;;5071583;28;20044;-65
2023/07/11 12:35:29;;;;;;;8.15;2.80;;;26.00;94.00;;;;;;5071458;28;20028;-65
2023/07/11 12:38:00;;;;;;;7.70;2.90;;;26.10;94.20;;;;;;5071748;28;20079;-65
2023/07/11 12:40:48;;;;;;;7.50;3.30;;;26.00;94.00;;;;;;5071328;28;20120;-65
2023/07/11 12:43:31;;;;;;;7.80;2.45;;;25.90;94.30;;;;;;5071403;28;20084;-65
2023/07/11 12:46:31;;;;;;;6.63;2.65;;;25.80;94.30;;;;;;5105152;28;20049;-65
2023/07/11 12:48:58;;;;;;;6.13;2.70;;;25.70;95.20;;;;;;5020608;28;20472;-66
2023/07/11 12:51:37;;;;;;;6.80;2.70;;;25.70;95.40;;;;;;5070240;28;20047;-65
2023/07/11 12:54:08;;;;;;;6.38;2.42;;;25.90;94.50;;;;;;5072244;28;20040;-65
2023/07/11 12:56:34;;;;;;;4.35;1.90;;;26.00;95.00;;;;;;5072495;28;20123;-65
2023/07/11 12:59:00;;;;;;;5.72;2.25;;;26.10;94.50;;;;;;5104056;28;20115;-66
2023/07/11 13:01:26;;;;;;;5.75;1.95;;;26.10;94.50;;;;;;5072379;28;20037;-66